Terminal Aerodrome Forecast
Issued by NWS Cleveland, OH

Home | Current Version | Previous Version | Text Only | Print | Product List | Glossary Off
Versions: 1 2 3 4 5 6 7 8 9 10 11 12 13 14 15 16 17 18

000
FTUS41 KCLE 242300
TAFERI
TAF
KERI 242334Z 2500/2524 19015G25KT P6SM SCT025 OVC035
     FM250100 21020G32KT 6SM -SHRA VCTS OVC018CB
     FM250300 22025G40KT P6SM -SHRA VCTS OVC025CB
     FM250600 23020G30KT P6SM -SHRA OVC012
     FM251000 24025G40KT 3SM -SHSN OVC015
     FM251500 25012G25KT 5SM -SHSN BR OVC015=

USA.gov is the U.S. government's official web portal to all federal, state and local government web resources and services.